Terminal Aerodrome Forecast
Issued by NWS Sterling, VA

Home | Current Version | Previous Version | Text Only | Print | Product List | Glossary On
Versions: 1 2 3 4 5 6 7 8 9 10 11 12 13 14 15 16 17 18 19 20 21 22 23 24 25 26 27 28
000
FTUS41 KLWX 191431 AAC
TAFBWI
TAF AMD
KBWI 191431Z 1915/2018 31006KT P6SM BKN025 BKN250
     FM191800 29006KT P6SM SCT030 BKN200
     FM200100 00000KT P6SM FEW200 SCT250
     FM200900 00000KT P6SM SCT025 OVC100
     FM201400 12004KT 3SM -RA SCT015 OVC025
     FM201600 13005KT 1 1/2SM -RA OVC015=

USA.gov is the U.S. government's official web portal to all federal, state and local government web resources and services.